createdAt,value
2022-11-27T00:02:18.308Z,43.40
2022-11-27T00:04:45.368Z,39.28
2022-11-27T00:07:12.161Z,44.35
2022-11-27T00:09:39.254Z,45.70
2022-11-27T00:12:06.580Z,44.00
2022-11-27T00:14:33.429Z,38.13
2022-11-27T00:17:01.161Z,41.40
2022-11-27T00:19:27.961Z,41.92
2022-11-27T00:21:54.770Z,41.07
2022-11-27T00:24:21.560Z,46.33
2022-11-27T00:26:49.952Z,37.75
2022-11-27T00:29:16.744Z,41.92
2022-11-27T00:31:43.587Z,41.15
2022-11-27T00:34:10.843Z,38.70
2022-11-27T00:36:38.046Z,40.63
2022-11-27T00:39:05.600Z,40.53
2022-11-27T00:41:32.971Z,39.00
2022-11-27T00:43:59.775Z,36.53
2022-11-27T00:46:29.296Z,40.43
2022-11-27T00:49:00.276Z,39.70
2022-11-27T00:51:27.321Z,41.05
2022-11-27T00:53:54.180Z,42.45
2022-11-27T00:56:23.394Z,40.42
2022-11-27T00:58:50.428Z,41.53
2022-11-27T01:01:25.693Z,39.38
2022-11-27T01:03:52.544Z,36.63
2022-11-27T01:06:19.950Z,39.85
2022-11-27T01:08:46.907Z,38.75
2022-11-27T01:11:25.903Z,41.90
2022-11-27T01:13:52.857Z,40.60
2022-11-27T01:16:21.742Z,38.63
2022-11-27T01:18:49.221Z,39.20
2022-11-27T01:21:17.725Z,41.83
2022-11-27T01:23:44.660Z,37.63
2022-11-27T01:26:11.840Z,43.35
2022-11-27T01:28:39.827Z,37.88
2022-11-27T01:31:08.517Z,40.42
2022-11-27T01:33:35.326Z,40.25
2022-11-27T01:36:03.268Z,41.80
2022-11-27T01:38:30.806Z,42.60
2022-11-27T01:41:23.579Z,42.97
2022-11-27T01:43:53.450Z,37.22
2022-11-27T01:46:57.908Z,46.22
2022-11-27T01:49:25.699Z,39.73
2022-11-27T01:51:59.100Z,44.85
2022-11-27T01:54:29.645Z,40.25
2022-11-27T01:56:58.485Z,39.58
2022-11-27T01:59:25.293Z,41.25
2022-11-27T02:01:52.146Z,45.90
2022-11-27T02:04:19.389Z,36.25
2022-11-27T02:06:46.406Z,39.85
2022-11-27T02:09:13.265Z,38.97
2022-11-27T02:11:58.662Z,40.05
2022-11-27T02:14:44.948Z,41.63
2022-11-27T02:17:30.124Z,37.38
2022-11-27T02:19:59.929Z,33.72
2022-11-27T02:22:47.905Z,37.92
2022-11-27T02:25:28.130Z,36.00
2022-11-27T02:28:02.837Z,36.80
2022-11-27T02:30:30.741Z,31.95
2022-11-27T02:32:59.467Z,34.30
2022-11-27T02:35:40.048Z,33.35
2022-11-27T02:38:40.235Z,32.03
2022-11-27T02:41:14.461Z,29.07
2022-11-27T02:43:43.261Z,35.38
2022-11-27T02:46:10.241Z,30.50
2022-11-27T02:48:40.745Z,28.75
2022-11-27T02:51:07.485Z,31.60
2022-11-27T02:53:51.915Z,31.27
2022-11-27T02:56:24.222Z,29.08
2022-11-27T02:58:51.095Z,33.25
2022-11-27T03:01:18.840Z,26.65
2022-11-27T03:03:46.961Z,32.60
2022-11-27T03:06:18.089Z,28.97
2022-11-27T03:08:51.840Z,34.25
2022-11-27T03:11:18.648Z,34.42
2022-11-27T03:13:53.690Z,28.63
2022-11-27T03:16:39.403Z,30.88
2022-11-27T03:19:19.842Z,30.63
2022-11-27T03:21:51.448Z,26.60
2022-11-27T03:24:18.317Z,29.30
2022-11-27T03:26:45.147Z,31.77
2022-11-27T03:29:14.833Z,27.38
2022-11-27T03:31:41.756Z,28.57
2022-11-27T03:34:08.632Z,27.27
2022-11-27T03:36:35.466Z,29.17
2022-11-27T03:39:02.343Z,27.85
2022-11-27T03:41:53.841Z,27.08
2022-11-27T03:44:30.248Z,28.53
2022-11-27T03:47:18.828Z,28.00
2022-11-27T03:50:14.623Z,25.35
2022-11-27T03:53:21.295Z,23.88
2022-11-27T03:56:09.787Z,22.15
2022-11-27T03:58:43.418Z,26.77
2022-11-27T04:01:11.747Z,25.08
2022-11-27T04:03:38.769Z,24.65
2022-11-27T04:06:05.824Z,25.85
2022-11-27T04:08:32.734Z,27.95
2022-11-27T04:10:59.602Z,24.83
2022-11-27T04:13:26.410Z,25.65
2022-11-27T04:15:53.382Z,23.73
2022-11-27T04:18:20.234Z,29.05
2022-11-27T04:20:47.052Z,25.88
2022-11-27T04:23:13.886Z,29.83
2022-11-27T04:25:40.673Z,29.10
2022-11-27T04:28:07.464Z,27.27
2022-11-27T04:30:34.247Z,23.38
2022-11-27T04:33:01.068Z,28.92
2022-11-27T04:35:28.069Z,30.27
2022-11-27T04:37:56.405Z,29.42
2022-11-27T04:40:23.149Z,26.90
2022-11-27T04:42:50.765Z,25.80
2022-11-27T04:45:17.663Z,29.70
2022-11-27T04:47:44.444Z,26.03
2022-11-27T04:50:11.592Z,27.23
2022-11-27T04:52:38.392Z,31.15
2022-11-27T04:55:05.552Z,27.35
2022-11-27T04:57:32.405Z,26.33
2022-11-27T04:59:59.265Z,28.00
2022-11-27T05:02:26.126Z,30.92
2022-11-27T05:04:53.007Z,23.23
2022-11-27T05:07:19.796Z,29.58
2022-11-27T05:09:46.655Z,29.05
2022-11-27T05:12:13.426Z,24.70
2022-11-27T05:14:40.494Z,25.60
2022-11-27T05:17:07.509Z,27.73
2022-11-27T05:19:34.370Z,27.58
2022-11-27T05:22:01.190Z,27.02
2022-11-27T05:24:28.598Z,27.83
2022-11-27T05:26:56.092Z,26.58
2022-11-27T05:29:23.143Z,27.63
2022-11-27T05:31:50.027Z,35.17
2022-11-27T05:34:16.927Z,29.33
2022-11-27T05:36:43.825Z,56.20
2022-11-27T05:39:10.891Z,55.67
2022-11-27T05:41:38.912Z,96.60
2022-11-27T05:44:05.809Z,128.45
2022-11-27T05:46:33.027Z,91.28
2022-11-27T05:48:59.990Z,155.20
2022-11-27T05:51:26.827Z,140.07
2022-11-27T05:53:53.708Z,145.00
2022-11-27T05:56:20.490Z,38.80
2022-11-27T05:58:47.745Z,50.63
2022-11-27T06:01:15.122Z,34.70
2022-11-27T06:03:41.997Z,53.05
2022-11-27T06:06:10.064Z,59.60
2022-11-27T06:08:37.680Z,60.72
2022-11-27T06:11:08.870Z,61.85
2022-11-27T06:13:35.623Z,70.43
2022-11-27T06:16:19.978Z,45.33
2022-11-27T06:18:49.241Z,25.70
2022-11-27T06:21:16.668Z,27.73
2022-11-27T06:23:43.654Z,29.70
2022-11-27T06:26:12.039Z,28.23
2022-11-27T06:28:38.924Z,31.58
2022-11-27T06:31:17.720Z,34.83
2022-11-27T06:33:48.765Z,33.88
2022-11-27T06:36:15.944Z,40.88
2022-11-27T06:38:42.867Z,36.37
2022-11-27T06:41:14.583Z,42.17
2022-11-27T06:43:41.367Z,56.13
2022-11-27T06:46:09.532Z,51.03
2022-11-27T06:48:36.405Z,53.83
2022-11-27T06:51:04.743Z,52.38
2022-11-27T06:53:32.383Z,52.88
2022-11-27T06:55:59.251Z,40.17
2022-11-27T06:58:30.805Z,48.63
2022-11-27T07:01:02.284Z,40.60
2022-11-27T07:03:29.102Z,40.43
2022-11-27T07:05:55.867Z,39.75
2022-11-27T07:08:22.750Z,37.60
2022-11-27T07:10:49.641Z,35.40
2022-11-27T07:13:16.424Z,26.98
2022-11-27T07:15:43.480Z,31.17
2022-11-27T07:18:10.628Z,27.92
2022-11-27T07:20:37.550Z,35.50
2022-11-27T07:23:04.383Z,34.42
2022-11-27T07:25:31.180Z,37.42
2022-11-27T07:27:57.923Z,40.10
2022-11-27T07:30:24.761Z,34.83
2022-11-27T07:32:51.541Z,35.60
2022-11-27T07:35:18.683Z,31.10
2022-11-27T07:37:45.462Z,28.25
2022-11-27T07:40:14.871Z,33.30
2022-11-27T07:42:41.964Z,29.83
2022-11-27T07:45:09.272Z,32.25
2022-11-27T07:47:36.204Z,29.55
2022-11-27T07:50:03.109Z,35.05
2022-11-27T07:52:29.945Z,30.00
2022-11-27T07:54:56.788Z,31.80
2022-11-27T07:57:23.564Z,30.35
2022-11-27T07:59:50.383Z,27.05
2022-11-27T08:02:17.260Z,28.42
2022-11-27T08:04:44.514Z,27.07
2022-11-27T08:07:11.557Z,24.83
2022-11-27T08:09:40.046Z,23.23
2022-11-27T08:12:07.346Z,23.48
2022-11-27T08:14:34.230Z,26.20
2022-11-27T08:17:01.030Z,23.63
2022-11-27T08:19:27.898Z,21.35
2022-11-27T08:21:56.346Z,25.50
2022-11-27T08:24:23.143Z,22.85
2022-11-27T08:26:50.080Z,26.60
2022-11-27T08:29:16.954Z,26.50
2022-11-27T08:31:43.794Z,25.17
2022-11-27T08:34:10.627Z,27.55
2022-11-27T08:36:37.376Z,25.05
2022-11-27T08:39:04.161Z,24.25
2022-11-27T08:41:30.945Z,23.03
2022-11-27T08:43:57.779Z,26.27
2022-11-27T08:46:24.600Z,24.38
2022-11-27T08:48:51.458Z,20.27
2022-11-27T08:51:18.202Z,20.95
2022-11-27T08:53:45.936Z,22.40
2022-11-27T08:56:17.489Z,22.70
2022-11-27T08:58:44.517Z,20.02
2022-11-27T09:01:19.323Z,21.50
2022-11-27T09:03:46.526Z,20.40
2022-11-27T09:06:15.681Z,21.50
2022-11-27T09:08:42.880Z,22.45
2022-11-27T09:11:10.401Z,20.85
2022-11-27T09:13:37.415Z,20.52
2022-11-27T09:16:05.611Z,19.83
2022-11-27T09:18:32.646Z,21.70
2022-11-27T09:21:01.789Z,22.23
2022-11-27T09:23:29.261Z,21.58
2022-11-27T09:26:00.420Z,20.73
2022-11-27T09:28:31.369Z,23.48
2022-11-27T09:30:59.918Z,19.80
2022-11-27T09:33:27.677Z,19.35
2022-11-27T09:35:54.478Z,18.90
2022-11-27T09:38:21.337Z,17.23
2022-11-27T09:41:00.406Z,18.00
2022-11-27T09:43:32.050Z,20.20
2022-11-27T09:46:01.488Z,18.25
2022-11-27T09:48:39.559Z,19.52
2022-11-27T09:51:17.182Z,18.33
2022-11-27T09:53:47.700Z,20.77
2022-11-27T09:56:16.841Z,18.67
2022-11-27T09:58:49.623Z,19.27
2022-11-27T10:01:18.033Z,20.65
2022-11-27T10:03:45.828Z,19.95
2022-11-27T10:06:36.779Z,18.95
2022-11-27T10:09:21.759Z,16.40
2022-11-27T10:11:54.804Z,21.23
2022-11-27T10:14:28.167Z,20.52
2022-11-27T10:17:15.844Z,20.42
2022-11-27T10:20:16.803Z,19.45
2022-11-27T10:23:01.315Z,19.27
2022-11-27T10:25:41.287Z,23.48
2022-11-27T10:28:11.218Z,19.40
2022-11-27T10:30:42.660Z,20.10
2022-11-27T10:33:16.340Z,21.77
2022-11-27T10:35:43.156Z,24.27
2022-11-27T10:38:26.806Z,22.40
2022-11-27T10:41:07.837Z,21.95
2022-11-27T10:43:36.752Z,21.40
2022-11-27T10:46:33.002Z,23.52
2022-11-27T10:48:59.828Z,22.67
2022-11-27T10:51:32.600Z,22.48
2022-11-27T10:53:59.807Z,22.75
2022-11-27T10:57:14.513Z,23.02
2022-11-27T11:00:06.185Z,24.00
2022-11-27T11:02:34.536Z,22.93
2022-11-27T11:05:56.823Z,20.85
2022-11-27T11:08:21.168Z,26.83
2022-11-27T11:11:02.099Z,29.95
2022-11-27T11:13:31.147Z,29.88
2022-11-27T11:16:04.559Z,28.47
2022-11-27T11:18:32.516Z,29.55
2022-11-27T11:21:01.848Z,30.35
2022-11-27T11:23:38.668Z,28.27
2022-11-27T11:26:25.530Z,29.88
2022-11-27T11:28:57.137Z,28.83
2022-11-27T11:31:35.218Z,29.35
2022-11-27T11:34:12.829Z,26.65
2022-11-27T11:36:39.979Z,26.98
2022-11-27T11:39:07.094Z,26.25
2022-11-27T11:41:38.488Z,26.20
2022-11-27T11:44:05.610Z,28.50
2022-11-27T11:46:33.884Z,27.88
2022-11-27T11:49:08.689Z,26.40
2022-11-27T11:54:59.726Z,27.70
2022-11-27T11:58:10.446Z,28.05
2022-11-27T12:01:11.809Z,30.05
2022-11-27T12:03:58.697Z,28.52
2022-11-27T12:06:37.677Z,26.73
2022-11-27T12:09:39.764Z,25.53
2022-11-27T12:12:19.501Z,29.45
2022-11-27T12:14:55.028Z,28.63
2022-11-27T12:17:45.155Z,28.00
2022-11-27T12:20:49.388Z,27.88
2022-11-27T12:23:37.685Z,25.10
2022-11-27T12:26:27.332Z,27.45
2022-11-27T12:29:24.675Z,28.13
2022-11-27T12:32:09.972Z,25.42
2022-11-27T12:35:14.068Z,26.45
2022-11-27T12:37:48.578Z,27.13
2022-11-27T12:40:39.921Z,25.30
2022-11-27T12:43:25.923Z,25.13
2022-11-27T12:45:58.021Z,25.60
2022-11-27T12:48:30.101Z,26.42
2022-11-27T12:51:02.362Z,24.17
2022-11-27T12:53:36.985Z,27.58
2022-11-27T12:56:24.781Z,26.23
2022-11-27T12:59:11.341Z,23.50
2022-11-27T13:02:16.763Z,25.30
2022-11-27T13:04:50.190Z,24.83
2022-11-27T13:07:38.971Z,27.13
2022-11-27T13:10:24.184Z,26.33
2022-11-27T13:13:31.524Z,25.73
2022-11-27T13:16:01.175Z,25.77
2022-11-27T13:18:35.445Z,25.30
2022-11-27T13:21:04.635Z,26.30
2022-11-27T13:23:34.737Z,25.10
2022-11-27T13:26:04.176Z,27.42
2022-11-27T13:28:53.272Z,24.20
2022-11-27T13:31:28.648Z,26.20
2022-11-27T13:34:00.539Z,26.85
2022-11-27T13:36:35.915Z,24.88
2022-11-27T13:39:03.118Z,26.85
2022-11-27T13:41:35.371Z,27.58
2022-11-27T13:44:02.312Z,26.10
2022-11-27T13:46:30.998Z,26.75
2022-11-27T13:49:00.717Z,25.42
2022-11-27T13:51:32.565Z,24.35
2022-11-27T13:54:12.407Z,27.65
2022-11-27T13:56:39.346Z,22.90
2022-11-27T13:59:25.073Z,24.02
2022-11-27T14:02:03.297Z,25.42
2022-11-27T14:04:33.364Z,22.45
2022-11-27T14:07:03.475Z,23.80
2022-11-27T14:09:53.904Z,26.53
2022-11-27T14:12:31.063Z,22.70
2022-11-27T14:15:10.277Z,24.65
2022-11-27T14:17:41.838Z,25.30
2022-11-27T14:20:17.701Z,23.83
2022-11-27T14:23:14.118Z,25.10
2022-11-27T14:25:41.144Z,26.40
2022-11-27T14:28:26.467Z,23.38
2022-11-27T14:31:00.471Z,27.98
2022-11-27T14:33:47.319Z,29.42
2022-11-27T14:36:26.309Z,26.73
2022-11-27T14:38:53.253Z,31.88
2022-11-27T14:41:22.530Z,29.58
2022-11-27T14:43:49.502Z,30.85
2022-11-27T14:46:20.633Z,27.45
2022-11-27T14:48:57.964Z,29.27
2022-11-27T14:51:26.288Z,30.95
2022-11-27T14:53:57.121Z,33.15
2022-11-27T14:56:23.985Z,32.80
2022-11-27T14:58:52.287Z,33.53
2022-11-27T15:01:28.117Z,33.37
2022-11-27T15:04:02.681Z,35.45
2022-11-27T15:06:48.043Z,33.83
2022-11-27T15:09:31.761Z,36.58
2022-11-27T15:12:18.607Z,37.15
2022-11-27T15:14:52.214Z,37.33
2022-11-27T15:17:25.379Z,42.75
2022-11-27T15:19:52.196Z,37.35
2022-11-27T15:22:19.104Z,36.42
2022-11-27T15:24:45.958Z,38.90
2022-11-27T15:27:15.692Z,39.40
2022-11-27T15:30:10.504Z,38.33
2022-11-27T15:32:54.705Z,37.00
2022-11-27T15:35:33.561Z,39.25
2022-11-27T15:38:04.591Z,41.58
2022-11-27T15:40:33.551Z,39.47
2022-11-27T15:43:00.362Z,40.63
2022-11-27T15:45:28.335Z,40.17
2022-11-27T15:48:01.683Z,41.60
2022-11-27T15:50:31.304Z,39.05
2022-11-27T15:52:58.195Z,39.27
2022-11-27T15:55:25.133Z,41.47
2022-11-27T15:57:51.943Z,44.22
2022-11-27T16:00:19.433Z,43.97
2022-11-27T16:02:46.308Z,43.85
2022-11-27T16:05:13.163Z,50.13
2022-11-27T16:07:40.004Z,42.17
2022-11-27T16:10:07.563Z,43.60
2022-11-27T16:12:34.453Z,44.30
2022-11-27T16:15:01.304Z,42.28
2022-11-27T16:17:28.135Z,43.30
2022-11-27T16:19:55.090Z,44.88
2022-11-27T16:22:21.964Z,43.67
2022-11-27T16:24:48.900Z,40.80
2022-11-27T16:27:15.682Z,41.45
2022-11-27T16:29:43.063Z,40.10
2022-11-27T16:32:10.023Z,41.13
2022-11-27T16:34:36.975Z,40.30
2022-11-27T16:37:03.774Z,44.35
2022-11-27T16:39:30.675Z,39.72
2022-11-27T16:41:57.502Z,41.73
2022-11-27T16:44:24.303Z,39.63
2022-11-27T16:46:51.085Z,41.28
2022-11-27T16:49:17.894Z,45.10
2022-11-27T16:51:44.712Z,42.97
2022-11-27T16:54:12.464Z,42.13
2022-11-27T16:56:39.283Z,40.65
2022-11-27T16:59:08.761Z,43.75
2022-11-27T17:01:36.257Z,42.78
2022-11-27T17:04:04.968Z,51.15
2022-11-27T17:06:32.859Z,40.97
2022-11-27T17:09:00.907Z,45.63
2022-11-27T17:11:29.852Z,44.58
2022-11-27T17:13:57.557Z,45.17
2022-11-27T17:16:24.454Z,46.00
2022-11-27T17:18:51.249Z,44.90
2022-11-27T17:21:29.060Z,42.92
2022-11-27T17:23:56.881Z,49.72
2022-11-27T17:26:24.072Z,45.42
2022-11-27T17:28:51.212Z,43.03
2022-11-27T17:31:19.725Z,47.80
2022-11-27T17:33:46.923Z,50.22
2022-11-27T17:36:14.150Z,47.80
2022-11-27T17:38:40.967Z,42.83
2022-11-27T17:41:12.112Z,49.42
2022-11-27T17:43:39.234Z,46.30
2022-11-27T17:46:09.494Z,49.20
2022-11-27T17:48:36.445Z,48.50
2022-11-27T17:51:03.261Z,50.40
2022-11-27T17:53:30.044Z,47.67
2022-11-27T17:55:57.392Z,47.13
2022-11-27T17:58:24.163Z,50.40
2022-11-27T18:00:50.993Z,48.22
2022-11-27T18:03:17.769Z,51.10
2022-11-27T18:05:44.565Z,54.63
2022-11-27T18:08:11.288Z,58.53
2022-11-27T18:10:38.078Z,58.00
2022-11-27T18:13:04.876Z,64.20
2022-11-27T18:15:31.606Z,62.17
2022-11-27T18:17:59.210Z,62.15
2022-11-27T18:20:25.990Z,63.00
2022-11-27T18:22:52.805Z,62.67
2022-11-27T18:25:19.559Z,68.78
2022-11-27T18:27:46.356Z,66.18
2022-11-27T18:30:13.649Z,68.30
2022-11-27T18:32:40.425Z,66.23
2022-11-27T18:35:07.671Z,68.93
2022-11-27T18:37:35.535Z,68.32
2022-11-27T18:40:02.337Z,75.88
2022-11-27T18:42:30.662Z,67.63
2022-11-27T18:44:57.682Z,68.37
2022-11-27T18:47:24.608Z,72.28
2022-11-27T18:49:51.470Z,71.57
2022-11-27T18:52:18.381Z,71.18
2022-11-27T18:54:45.348Z,75.75
2022-11-27T18:57:12.287Z,65.97
2022-11-27T18:59:39.700Z,76.28
2022-11-27T19:02:07.015Z,75.65
2022-11-27T19:04:37.727Z,79.05
2022-11-27T19:07:04.616Z,75.78
2022-11-27T19:09:31.428Z,78.20
2022-11-27T19:11:58.248Z,80.82
2022-11-27T19:14:25.126Z,73.82
2022-11-27T19:16:52.407Z,73.78
2022-11-27T19:22:07.574Z,75.03
2022-11-27T19:24:34.486Z,78.35
2022-11-27T19:27:01.410Z,77.80
2022-11-27T19:29:28.288Z,75.15
2022-11-27T19:31:57.713Z,74.38
2022-11-27T19:34:24.609Z,79.50
2022-11-27T19:36:51.607Z,82.20
2022-11-27T19:39:18.600Z,73.78
2022-11-27T19:41:45.341Z,79.15
2022-11-27T19:44:12.622Z,78.93
2022-11-27T19:46:39.544Z,82.83
2022-11-27T19:49:08.535Z,75.07
2022-11-27T19:51:36.799Z,76.97
2022-11-27T19:54:09.949Z,78.55
2022-11-27T19:56:38.859Z,73.25
2022-11-27T19:59:06.080Z,76.10
2022-11-27T20:01:32.970Z,72.13
2022-11-27T20:04:00.087Z,70.57
2022-11-27T20:06:27.209Z,75.68
2022-11-27T20:08:57.308Z,73.88
2022-11-27T20:11:24.609Z,74.27
2022-11-27T20:13:52.212Z,73.47
2022-11-27T20:16:20.586Z,71.93
2022-11-27T20:18:47.534Z,80.60
2022-11-27T20:21:17.133Z,68.15
2022-11-27T20:23:44.382Z,70.97
2022-11-27T20:26:12.854Z,80.53
2022-11-27T20:28:42.895Z,74.95
2022-11-27T20:31:17.651Z,71.82
2022-11-27T20:33:44.575Z,78.80
2022-11-27T20:36:12.680Z,75.77
2022-11-27T20:38:39.519Z,74.50
2022-11-27T20:41:08.045Z,77.15
2022-11-27T20:43:35.663Z,79.43
2022-11-27T20:46:02.735Z,85.93
2022-11-27T20:48:29.864Z,80.63
2022-11-27T20:50:56.628Z,84.47
2022-11-27T20:53:23.446Z,90.45
2022-11-27T20:55:50.226Z,85.95
2022-11-27T20:58:17.116Z,85.38
2022-11-27T21:00:43.963Z,80.47
2022-11-27T21:03:10.827Z,79.55
2022-11-27T21:05:38.781Z,85.35
2022-11-27T21:08:05.709Z,86.60
2022-11-27T21:10:32.547Z,89.60
2022-11-27T21:12:59.284Z,84.90
2022-11-27T21:15:26.048Z,83.25
2022-11-27T21:17:52.768Z,80.32
2022-11-27T21:20:20.763Z,88.78
2022-11-27T21:22:47.543Z,81.68
2022-11-27T21:25:14.328Z,87.63
2022-11-27T21:27:41.133Z,86.18
2022-11-27T21:30:08.521Z,84.15
2022-11-27T21:32:35.351Z,88.47
2022-11-27T21:35:02.122Z,87.45
2022-11-27T21:37:28.888Z,88.33
2022-11-27T21:39:55.605Z,86.43
2022-11-27T21:42:22.411Z,83.75
2022-11-27T21:44:49.174Z,84.05
2022-11-27T21:47:16.019Z,78.95
2022-11-27T21:49:42.874Z,89.30
2022-11-27T21:52:09.592Z,86.85
2022-11-27T21:54:36.598Z,93.47
2022-11-27T21:57:03.440Z,94.82
2022-11-27T21:59:30.213Z,88.05
2022-11-27T22:01:57.529Z,81.63
2022-11-27T22:04:24.929Z,92.90
2022-11-27T22:06:52.773Z,83.05
2022-11-27T22:09:19.616Z,91.28
2022-11-27T22:11:46.474Z,89.32
2022-11-27T22:14:14.174Z,86.63
2022-11-27T22:16:45.176Z,89.20
2022-11-27T22:19:14.354Z,85.22
2022-11-27T22:21:41.335Z,91.82
2022-11-27T22:24:12.176Z,86.88
2022-11-27T22:26:43.437Z,89.03
2022-11-27T22:29:10.224Z,89.13
2022-11-27T22:31:36.956Z,86.53
2022-11-27T22:34:03.887Z,94.18
2022-11-27T22:36:32.388Z,88.57
2022-11-27T22:39:00.437Z,93.23
2022-11-27T22:41:28.889Z,87.80
2022-11-27T22:43:55.624Z,91.45
2022-11-27T22:46:27.603Z,88.18
2022-11-27T22:49:00.572Z,87.60
2022-11-27T22:51:28.661Z,85.37
2022-11-27T22:53:55.543Z,84.35
2022-11-27T22:56:22.364Z,88.53
2022-11-27T22:58:49.181Z,90.85
2022-11-27T23:01:21.143Z,86.38
2022-11-27T23:03:48.161Z,78.13
2022-11-27T23:06:15.855Z,80.40
2022-11-27T23:08:43.653Z,84.35
2022-11-27T23:11:11.214Z,81.45
2022-11-27T23:13:37.972Z,87.68
2022-11-27T23:16:06.244Z,87.93
2022-11-27T23:18:33.393Z,90.43
2022-11-27T23:21:00.237Z,93.03
2022-11-27T23:23:26.996Z,82.45
2022-11-27T23:25:53.814Z,82.45
2022-11-27T23:28:20.536Z,85.07
2022-11-27T23:30:50.331Z,84.38
2022-11-27T23:33:25.956Z,78.25
2022-11-27T23:35:59.665Z,75.40
2022-11-27T23:38:26.484Z,84.95
2022-11-27T23:40:53.238Z,81.17
2022-11-27T23:43:20.077Z,82.13
2022-11-27T23:45:46.955Z,84.20
2022-11-27T23:48:13.912Z,84.53
2022-11-27T23:50:41.735Z,97.95
2022-11-27T23:53:08.730Z,85.93
2022-11-27T23:55:36.387Z,88.68
2022-11-27T23:58:03.195Z,85.95
